• Join FlightAware (Why Join?)
  • Login
  • US Flag 
05:52AM EDT


 

Airport Tracker/Info


-or-


 

Live Flight TrackerFlight Track Log ✈ CTL13 ✈ 19-Apr-2013 ✈ KOWX - KEYE

Flight Track Log - Related Links

Times and Time Zones

All times are in EDT time to prevent confusion due to time zone crossing. See the CTL13 flight status page for this flight to view local times or setup timezone preferences in your user account.

Time Position Orientation Groundspeed Altitude Reporting Facility
EDT Latitude Longitude Course Direction KTS MPH feet Rate Location/Type
08:00PM 40.9486 -84.1808 237° Southwest 125 144 4,900  Level Chicago Center
08:01PM 40.9303 -84.2133 233° Southwest 117 135 6,100 1,020 Climbing Chicago Center
08:02PM 40.9175 -84.2403 238° Southwest 107 123 7,100 900 Climbing Chicago Center
08:04PM 40.9199 -84.1779 232° Southwest  Level FlightAware Approximate
08:04PM 40.8975 -84.2678 226° Southwest 95 109 8,000  Level Chicago Center
08:05PM 40.9030 -84.2245 246° West  Level FlightAware Approximate
08:05PM 40.8761 -84.2903 219° Southwest 93 107 8,100  Level Chicago Center
08:05PM 40.8617 -84.3058 219° Southwest 95 109 8,400 300 Climbing Indianapolis Center
08:06PM 40.8806 -84.2690 237° Southwest  Level Estimated
08:06PM 40.8389 -84.3336 223° Southwest 101 116 8,600  Level Indianapolis Center
08:07PM 40.8147 -84.3617 221° Southwest 107 123 9,200 480 Climbing Indianapolis Center
08:08PM 40.7869 -84.3881 216° Southwest 115 132 9,600 420 Climbing Indianapolis Center
08:09PM 40.7781 -84.3964 215° Southwest 114 131 9,800 420 Climbing Chicago Center
08:10PM 40.7525 -84.4242 219° Southwest 117 135 10,200 120 Climbing Chicago Center
08:11PM 40.7203 -84.4586 219° Southwest 120 138 10,100 -60 Descending Chicago Center
08:12PM 40.6925 -84.4928 223° Southwest 125 144 10,100 -120 Level Chicago Center
08:13PM 40.6642 -84.5244 220° Southwest 130 150 9,900 -120 Descending Chicago Center
08:14PM 40.6364 -84.5572 222° Southwest 132 152 9,900  Level Chicago Center
08:14PM 40.6169 -84.5794 221° Southwest 135 155 9,900 -120 Level Indianapolis Center
08:15PM 40.5894 -84.6114 221° Southwest 133 153 9,800  Descending Indianapolis Center
08:16PM 40.5600 -84.6433 220° Southwest 133 153 9,900  Climbing Indianapolis Center
08:18PM 40.5311 -84.6756 220° Southwest 135 155 9,900  Level Indianapolis Center
08:19PM 40.5033 -84.7081 222° Southwest 134 154 10,000  Climbing Indianapolis Center
08:20PM 40.4689 -84.7456 220° Southwest 135 155 10,000 60 Level Indianapolis Center
08:20PM 40.4586 -84.7561 218° Southwest 133 153 10,100  Climbing Indianapolis Center
08:21PM 40.4397 -84.7744 216° Southwest 133 153 10,000  Descending Indianapolis Center
08:22PM 40.4122 -84.8067 222° Southwest 132 152 10,100  Climbing Indianapolis Center
08:22PM 40.4011 -84.8192 221° Southwest 134 154 10,000 -120 Descending Indianapolis Center
08:23PM 40.3836 -84.8392 221° Southwest 133 153 10,000  Level Indianapolis Center
08:23PM 40.3731 -84.8508 220° Southwest 136 157 10,000  Level Indianapolis Center
08:24PM 40.3594 -84.8669 222° Southwest 134 154 10,000  Level Indianapolis Center
08:24PM 40.3428 -84.8875 223° Southwest 138 159 10,000  Level Indianapolis Center
08:25PM 40.3247 -84.9053 217° Southwest 136 157 10,000  Level Indianapolis Center
08:26PM 40.2950 -84.9386 221° Southwest 138 159 10,000  Level Indianapolis Center
08:27PM 40.2656 -84.9708 220° Southwest 138 159 10,000  Level Indianapolis Center
08:28PM 40.2483 -85.0097 240° Southwest 138 159 10,000  Level Indianapolis Center
08:29PM 40.2319 -85.0561 245° Southwest 137 158 10,000  Level Indianapolis Center
08:30PM 40.2119 -85.1178 247° West 134 154 10,000  Level Indianapolis Center
08:31PM 40.2003 -85.1558 248° West 135 155 10,000 60 Level Indianapolis Center
08:31PM 40.1969 -85.1703 253° West 135 155 10,100  Climbing Indianapolis Center
08:32PM 40.1872 -85.2006 247° West 134 154 10,000 -360 Descending Indianapolis Center
08:33PM 40.1722 -85.2483 248° West 136 157 9,500 -600 Descending Indianapolis Center
08:34PM 40.1581 -85.3000 250° West 143 165 8,800 -660 Descending Indianapolis Center
08:35PM 40.1394 -85.3506 244° Southwest 148 170 8,200 -540 Descending Indianapolis Center
08:36PM 40.1225 -85.4036 247° West 152 175 7,700 -540 Descending Indianapolis Center
08:37PM 40.1050 -85.4553 246° West 152 175 7,200 -660 Descending Indianapolis Center
08:39PM 40.0667 -85.5500 242° Southwest 150 173 5,800 -720 Descending Indianapolis TRACON
08:40PM 40.0667 -85.6000 270° West 150 173 5,400 -600 Descending Indianapolis TRACON
08:41PM 40.0500 -85.6500 246° West 153 176 4,800 -600 Descending Indianapolis TRACON
08:42PM 40.0333 -85.7000 246° West 149 171 4,300 -600 Descending Indianapolis TRACON
08:43PM 40.0167 -85.7333 237° Southwest 149 171 3,800 -720 Descending Indianapolis TRACON
08:44PM 40.0000 -85.7833 246° West 154 177 3,100 -420 Descending Indianapolis TRACON
08:45PM 39.9833 -85.8333 247° West 154 177 3,000 -120 Descending Indianapolis TRACON
08:46PM 39.9833 -85.8833 270° West 145 167 2,900  Descending Indianapolis TRACON
08:47PM 39.9667 -85.9500 252° West 138 159 3,000  Climbing Indianapolis TRACON
08:48PM 39.9667 -86.0000 270° West 137 158 3,000 -60 Level Indianapolis TRACON
08:49PM 39.9500 -86.0333 237° Southwest 136 157 2,900  Descending Indianapolis TRACON
08:50PM 39.9500 -86.0833 270° West 139 160 3,000  Climbing Indianapolis TRACON
08:51PM 39.9333 -86.1333 247° West 138 159 2,900 -120 Descending Indianapolis TRACON